Time;durP1;ratioP1;P1;durP2;ratioP2;P2;SDS_P1;SDS_P2;PMS_P1;PMS_P2;Temp;Humidity;BMP_temperature;BMP_pressure;BME280_temperature;BME280_humidity;BME280_pressure;Samples;Min_cycle;Max_cycle;Signal;HPM_P1;HPM_P2
2021/10/16 00:00:58;;;;;;;5.03;3.00;;;9.80;82.80;;;;;;4936384;29;20578;-57
2021/10/16 00:03:25;;;;;;;9.20;2.90;;;9.70;82.90;;;;;;4933299;29;20059;-57
2021/10/16 00:05:52;;;;;;;14.75;2.80;;;9.70;83.20;;;;;;4935492;29;20047;-57
2021/10/16 00:08:19;;;;;;;9.52;2.70;;;9.70;83.40;;;;;;4935031;29;20075;-56
2021/10/16 00:10:46;;;;;;;9.13;2.90;;;9.60;83.40;;;;;;4935644;29;20047;-56
2021/10/16 00:13:12;;;;;;;9.73;2.80;;;9.60;83.50;;;;;;4936355;29;20063;-54
2021/10/16 00:15:40;;;;;;;8.40;3.00;;;9.40;83.70;;;;;;4935875;29;20088;-60
2021/10/16 00:18:07;;;;;;;13.88;3.78;;;9.40;84.00;;;;;;4937227;29;20094;-56
2021/10/16 00:20:33;;;;;;;13.57;3.15;;;9.40;84.30;;;;;;4931039;29;20130;-59
2021/10/16 00:23:00;;;;;;;12.70;2.78;;;9.40;84.30;;;;;;4935503;29;20044;-56
2021/10/16 00:25:27;;;;;;;12.82;3.40;;;9.50;84.30;;;;;;4937703;29;20511;-55
2021/10/16 00:27:57;;;;;;;10.52;2.97;;;9.50;84.30;;;;;;4925588;29;20137;-57
2021/10/16 00:30:24;;;;;;;10.50;2.83;;;9.50;84.30;;;;;;4940559;29;20449;-58
2021/10/16 00:32:51;;;;;;;9.50;3.35;;;9.50;84.10;;;;;;4938344;29;20048;-55
2021/10/16 00:35:18;;;;;;;8.32;3.70;;;9.40;84.10;;;;;;4938414;29;20087;-56
2021/10/16 00:37:48;;;;;;;8.55;3.08;;;9.30;84.20;;;;;;4937819;29;20098;-58
2021/10/16 00:40:15;;;;;;;7.28;3.00;;;9.20;84.30;;;;;;4938815;29;20098;-56
2021/10/16 00:42:46;;;;;;;15.55;5.78;;;9.10;84.80;;;;;;4940824;29;20051;-58
2021/10/16 00:45:14;;;;;;;8.23;3.22;;;9.10;84.90;;;;;;4935411;29;20058;-56
2021/10/16 00:47:42;;;;;;;6.28;3.15;;;9.10;85.00;;;;;;4942586;29;20047;-56
2021/10/16 00:50:09;;;;;;;10.40;2.80;;;9.10;85.10;;;;;;4942070;28;20456;-57
2021/10/16 00:52:36;;;;;;;9.13;3.13;;;9.10;85.10;;;;;;4934363;29;20055;-56
2021/10/16 00:55:05;;;;;;;11.73;4.18;;;9.10;85.30;;;;;;4934853;29;20072;-57
2021/10/16 00:57:35;;;;;;;5.60;2.67;;;9.10;85.20;;;;;;4942447;29;20123;-60
2021/10/16 01:00:06;;;;;;;9.77;3.33;;;9.10;85.30;;;;;;4958887;28;20513;-56
2021/10/16 01:02:33;;;;;;;8.75;2.75;;;9.20;85.50;;;;;;4951233;28;20051;-57
2021/10/16 01:05:01;;;;;;;8.18;2.78;;;9.20;85.40;;;;;;4958884;28;20051;-57
2021/10/16 01:07:30;;;;;;;12.35;3.80;;;9.10;85.50;;;;;;4940876;29;20047;-55
2021/10/16 01:09:57;;;;;;;7.88;2.42;;;9.10;86.10;;;;;;4944330;29;20054;-57
2021/10/16 01:12:24;;;;;;;9.93;3.47;;;9.20;85.90;;;;;;4940471;29;20051;-55
2021/10/16 01:14:56;;;;;;;9.68;3.75;;;9.20;86.00;;;;;;4937907;29;20063;-58
2021/10/16 01:17:23;;;;;;;10.05;2.85;;;9.30;86.10;;;;;;4953641;28;20052;-55
2021/10/16 01:19:54;;;;;;;12.93;3.55;;;9.40;86.00;;;;;;4944591;29;20516;-56
2021/10/16 01:22:21;;;;;;;8.25;3.42;;;9.40;85.90;;;;;;4930351;29;20091;-58
2021/10/16 01:24:49;;;;;;;8.82;3.40;;;9.40;85.50;;;;;;4941390;29;20098;-56
2021/10/16 01:27:16;;;;;;;8.55;2.97;;;9.30;85.30;;;;;;4943170;29;20111;-58
2021/10/16 01:29:43;;;;;;;10.95;2.92;;;9.20;85.50;;;;;;4954304;28;20082;-55
2021/10/16 01:32:10;;;;;;;12.55;3.22;;;9.10;85.90;;;;;;4936582;29;20051;-59
2021/10/16 01:34:37;;;;;;;7.70;2.88;;;9.10;86.20;;;;;;4936940;29;20491;-56
2021/10/16 01:37:03;;;;;;;14.60;3.28;;;9.20;86.20;;;;;;4934161;29;20507;-56
2021/10/16 01:39:31;;;;;;;10.60;3.40;;;9.20;86.10;;;;;;4936480;29;20713;-55
2021/10/16 01:41:57;;;;;;;7.18;3.38;;;9.30;86.10;;;;;;4938911;29;20503;-55
2021/10/16 01:44:24;;;;;;;6.85;3.13;;;9.30;86.10;;;;;;4936404;28;20056;-55
2021/10/16 01:46:51;;;;;;;10.75;4.00;;;9.30;85.90;;;;;;4938581;29;20047;-59
2021/10/16 01:49:19;;;;;;;13.45;3.55;;;9.30;85.80;;;;;;4938380;29;20076;-57
2021/10/16 01:51:47;;;;;;;9.30;3.40;;;9.30;85.70;;;;;;4936248;29;21282;-56
2021/10/16 01:54:14;;;;;;;9.75;3.90;;;9.30;85.80;;;;;;4952027;28;20055;-56
2021/10/16 01:56:41;;;;;;;14.43;3.28;;;9.40;85.90;;;;;;4937316;29;20075;-56
2021/10/16 01:59:19;;;;;;;6.20;2.83;;;9.40;85.80;;;;;;4936519;29;20047;-57
2021/10/16 02:02:04;;;;;;;8.45;3.30;;;9.40;86.70;;;;;;4935794;29;20385;-56
2021/10/16 02:04:32;;;;;;;10.70;3.88;;;9.40;86.10;;;;;;4933182;29;20138;-56
2021/10/16 02:06:59;;;;;;;11.88;3.95;;;9.40;86.00;;;;;;4936514;29;20050;-56
2021/10/16 02:09:26;;;;;;;7.80;2.80;;;9.40;85.90;;;;;;4933670;29;20061;-55
2021/10/16 02:11:52;;;;;;;9.65;3.63;;;9.50;85.90;;;;;;4944530;28;20471;-57
2021/10/16 02:14:19;;;;;;;9.23;3.17;;;9.40;85.80;;;;;;4930115;29;20056;-59
2021/10/16 02:16:46;;;;;;;7.85;3.10;;;9.40;85.80;;;;;;4929602;28;20115;-56
2021/10/16 02:19:18;;;;;;;10.93;2.90;;;9.20;85.80;;;;;;4933532;29;20194;-58
2021/10/16 02:21:45;;;;;;;8.60;3.20;;;9.10;86.00;;;;;;4951499;28;20047;-56
2021/10/16 02:24:12;;;;;;;10.30;3.95;;;9.00;86.00;;;;;;4933707;29;20495;-59
2021/10/16 02:26:39;;;;;;;10.32;3.45;;;9.10;86.10;;;;;;4935423;29;20051;-56
2021/10/16 02:29:06;;;;;;;12.18;2.70;;;9.10;86.10;;;;;;4933670;29;20184;-57
2021/10/16 02:31:32;;;;;;;7.57;2.78;;;9.10;85.90;;;;;;4933378;29;20055;-58
2021/10/16 02:33:59;;;;;;;11.27;3.10;;;9.10;86.10;;;;;;4936641;29;20051;-57
2021/10/16 02:36:26;;;;;;;9.55;3.45;;;9.10;86.20;;;;;;4937222;29;20135;-57
2021/10/16 02:38:53;;;;;;;10.90;3.05;;;9.00;86.40;;;;;;4932341;29;20072;-57
2021/10/16 02:41:20;;;;;;;13.38;3.70;;;9.00;86.70;;;;;;4954244;28;20052;-57
2021/10/16 02:43:47;;;;;;;8.30;2.83;;;9.00;86.60;;;;;;4932855;29;20091;-58
2021/10/16 02:46:13;;;;;;;11.23;3.33;;;9.00;86.60;;;;;;4940425;29;20216;-57
2021/10/16 02:48:40;;;;;;;12.55;2.78;;;9.00;86.70;;;;;;4933733;29;20047;-57
2021/10/16 02:51:07;;;;;;;9.23;2.70;;;9.00;86.60;;;;;;4936895;29;20055;-58
2021/10/16 02:53:35;;;;;;;10.68;2.80;;;9.00;86.70;;;;;;4931064;29;20517;-56
2021/10/16 02:56:02;;;;;;;15.07;3.00;;;8.90;86.90;;;;;;4939125;29;20396;-57
2021/10/16 02:58:29;;;;;;;6.53;2.90;;;8.90;86.60;;;;;;4940928;29;20098;-59
2021/10/16 03:00:56;;;;;;;10.10;3.03;;;8.90;86.70;;;;;;4940117;28;20055;-58
2021/10/16 03:03:23;;;;;;;8.40;3.85;;;8.90;87.00;;;;;;4936633;29;20044;-57
2021/10/16 03:05:50;;;;;;;8.68;3.35;;;8.90;86.80;;;;;;4934786;29;20082;-58
2021/10/16 03:08:17;;;;;;;12.48;2.63;;;8.90;86.90;;;;;;4933992;29;20046;-57
2021/10/16 03:10:43;;;;;;;7.88;2.53;;;8.90;87.20;;;;;;4935897;29;20058;-56
2021/10/16 03:13:10;;;;;;;8.30;2.85;;;8.90;87.10;;;;;;4939546;29;20590;-55
2021/10/16 03:15:37;;;;;;;8.73;3.15;;;8.80;86.70;;;;;;4935026;29;20098;-56
2021/10/16 03:18:04;;;;;;;7.40;3.28;;;8.80;86.70;;;;;;4937886;29;20055;-58
2021/10/16 03:20:31;;;;;;;8.18;2.95;;;8.60;86.90;;;;;;4903782;29;1177166;-57
2021/10/16 03:22:58;;;;;;;8.68;2.70;;;8.60;87.10;;;;;;4934526;28;20040;-59
2021/10/16 03:25:26;;;;;;;9.73;3.83;;;8.60;87.30;;;;;;4939263;29;20110;-54
2021/10/16 03:27:53;;;;;;;10.55;2.58;;;8.60;87.50;;;;;;4939891;28;20051;-62
2021/10/16 03:30:20;;;;;;;6.28;2.22;;;8.60;87.60;;;;;;4936315;29;20051;-55
2021/10/16 03:32:46;;;;;;;10.07;2.67;;;8.60;87.70;;;;;;4936483;29;20083;-54
2021/10/16 03:35:13;;;;;;;5.28;2.33;;;8.80;87.80;;;;;;4947547;28;20566;-57
2021/10/16 03:37:40;;;;;;;8.98;2.17;;;8.80;87.70;;;;;;4925342;29;20056;-55
2021/10/16 03:40:08;;;;;;;10.30;2.63;;;8.90;87.70;;;;;;4935712;28;20052;-57
2021/10/16 03:42:35;;;;;;;6.85;2.75;;;8.90;87.70;;;;;;4932712;29;20058;-59
2021/10/16 03:45:02;;;;;;;9.68;2.63;;;8.90;87.50;;;;;;4937901;29;20047;-56
2021/10/16 03:47:29;;;;;;;10.20;2.65;;;9.00;87.60;;;;;;4937741;29;20079;-57
2021/10/16 03:49:56;;;;;;;11.23;2.47;;;9.00;87.60;;;;;;4936942;29;20044;-58
2021/10/16 03:52:23;;;;;;;9.68;3.05;;;9.10;87.60;;;;;;4933190;29;20102;-56
2021/10/16 03:54:50;;;;;;;12.52;2.38;;;9.10;87.50;;;;;;4935440;29;20082;-57
2021/10/16 03:57:16;;;;;;;7.47;2.53;;;9.10;87.30;;;;;;4937107;29;20051;-57
2021/10/16 03:59:44;;;;;;;9.45;2.45;;;9.10;87.30;;;;;;4935544;29;20048;-58
2021/10/16 04:02:10;;;;;;;8.43;1.88;;;9.10;87.30;;;;;;4928667;29;20067;-55
2021/10/16 04:04:38;;;;;;;9.98;3.20;;;9.10;87.40;;;;;;4932972;29;20044;-59
2021/10/16 04:07:05;;;;;;;7.65;2.45;;;9.10;87.40;;;;;;4935050;29;20075;-55
2021/10/16 04:09:31;;;;;;;7.68;3.25;;;9.10;87.40;;;;;;4929908;29;20512;-57
2021/10/16 04:11:58;;;;;;;9.45;2.38;;;9.20;87.40;;;;;;4913065;29;20052;-54
2021/10/16 04:14:25;;;;;;;10.25;1.90;;;9.20;87.30;;;;;;4930801;29;20055;-55
2021/10/16 04:16:52;;;;;;;6.30;2.90;;;9.20;87.20;;;;;;4929823;29;20048;-54
2021/10/16 04:19:19;;;;;;;8.93;2.45;;;9.10;87.30;;;;;;4935634;29;20070;-57
2021/10/16 04:21:46;;;;;;;8.57;1.83;;;9.10;87.60;;;;;;4933112;29;20094;-53
2021/10/16 04:24:13;;;;;;;11.98;2.25;;;9.10;87.80;;;;;;4939742;29;20058;-55
2021/10/16 04:26:40;;;;;;;13.18;2.10;;;9.00;88.50;;;;;;4932284;29;20040;-56
2021/10/16 04:29:07;;;;;;;11.13;2.42;;;8.80;88.40;;;;;;4936302;29;20102;-58
2021/10/16 04:31:34;;;;;;;10.57;2.30;;;8.90;88.50;;;;;;4930433;29;20051;-55
2021/10/16 04:34:02;;;;;;;14.60;3.75;;;8.90;88.20;;;;;;4936323;29;20111;-55
2021/10/16 04:36:30;;;;;;;9.32;2.65;;;9.00;88.10;;;;;;4935411;29;20268;-57
2021/10/16 04:38:58;;;;;;;17.00;2.47;;;9.10;88.00;;;;;;4935060;29;20055;-56
2021/10/16 04:41:25;;;;;;;13.57;2.70;;;9.20;88.00;;;;;;4932171;29;20070;-55
2021/10/16 04:43:51;;;;;;;19.02;2.25;;;9.30;87.90;;;;;;4945918;28;20051;-56
2021/10/16 04:46:20;;;;;;;9.88;2.95;;;9.30;87.70;;;;;;4937608;29;20104;-56
2021/10/16 04:48:47;;;;;;;12.52;2.30;;;9.30;87.80;;;;;;4936955;28;20574;-54
2021/10/16 04:51:14;;;;;;;9.52;2.42;;;9.30;88.00;;;;;;4936233;29;20047;-59
2021/10/16 04:53:41;;;;;;;9.07;2.20;;;9.30;88.20;;;;;;4943200;29;20106;-56
2021/10/16 04:56:08;;;;;;;7.00;1.88;;;9.40;88.10;;;;;;4939216;29;20055;-56
2021/10/16 04:58:34;;;;;;;6.53;2.63;;;9.50;88.00;;;;;;4941284;29;20120;-54
2021/10/16 05:01:01;;;;;;;10.85;2.72;;;9.50;87.90;;;;;;4940271;28;20051;-58
2021/10/16 05:03:28;;;;;;;7.22;3.30;;;9.50;87.70;;;;;;4933912;29;20060;-56
2021/10/16 05:05:55;;;;;;;7.97;2.30;;;9.50;87.70;;;;;;4940756;29;20051;-54
2021/10/16 05:08:22;;;;;;;8.00;2.25;;;9.50;87.60;;;;;;4941032;29;20044;-55
2021/10/16 05:10:49;;;;;;;14.05;2.80;;;9.50;87.60;;;;;;4918828;29;20107;-54
2021/10/16 05:13:16;;;;;;;6.68;2.45;;;9.50;87.70;;;;;;4919631;29;20496;-58
2021/10/16 05:15:44;;;;;;;11.93;3.42;;;9.50;87.70;;;;;;4933453;29;20138;-59
2021/10/16 05:18:11;;;;;;;8.95;2.25;;;9.50;87.80;;;;;;4950129;28;20054;-59
2021/10/16 05:20:37;;;;;;;17.38;2.90;;;9.50;87.80;;;;;;4937252;29;20107;-64
2021/10/16 05:23:04;;;;;;;11.30;2.65;;;9.50;87.90;;;;;;4937387;29;20044;-57
2021/10/16 05:25:31;;;;;;;12.88;2.30;;;9.60;87.90;;;;;;4938140;29;20056;-56
2021/10/16 05:27:58;;;;;;;8.23;3.03;;;9.60;87.80;;;;;;4937050;28;20131;-55
2021/10/16 05:30:25;;;;;;;10.00;2.63;;;9.70;87.80;;;;;;4949071;28;20093;-57
2021/10/16 05:32:52;;;;;;;11.57;2.55;;;9.70;87.80;;;;;;4951302;28;20054;-56
2021/10/16 05:35:19;;;;;;;8.45;2.00;;;9.70;87.80;;;;;;4938858;29;20052;-55
2021/10/16 05:37:46;;;;;;;10.80;2.50;;;9.70;87.80;;;;;;4932534;28;20603;-56
2021/10/16 05:40:13;;;;;;;11.45;2.45;;;9.80;88.00;;;;;;4939942;29;20043;-57
2021/10/16 05:42:40;;;;;;;5.97;2.17;;;9.80;88.00;;;;;;4932683;29;20463;-54
2021/10/16 05:45:08;;;;;;;8.68;1.90;;;9.80;88.10;;;;;;4937591;29;20102;-56
2021/10/16 05:47:36;;;;;;;8.85;2.25;;;9.70;88.20;;;;;;4936080;29;20044;-56
2021/10/16 05:50:07;;;;;;;7.90;2.40;;;9.80;88.20;;;;;;4936862;29;20067;-56
2021/10/16 05:52:35;;;;;;;11.55;2.58;;;9.80;88.30;;;;;;4933524;29;20102;-56
2021/10/16 05:55:03;;;;;;;9.40;2.25;;;9.90;88.20;;;;;;4935706;29;20048;-56
2021/10/16 05:57:30;;;;;;;13.70;3.78;;;9.90;88.10;;;;;;4936316;29;20059;-56
2021/10/16 05:59:57;;;;;;;16.33;3.00;;;10.00;87.90;;;;;;4935460;28;20115;-54
2021/10/16 06:02:24;;;;;;;14.20;2.20;;;10.00;87.80;;;;;;4934778;29;20431;-57
2021/10/16 06:04:51;;;;;;;7.70;2.85;;;10.00;87.90;;;;;;4938765;29;20082;-58
2021/10/16 06:07:18;;;;;;;10.65;2.20;;;10.00;87.80;;;;;;4932054;29;20048;-57
2021/10/16 06:09:45;;;;;;;6.75;2.10;;;10.00;88.00;;;;;;4935671;29;20043;-57
2021/10/16 06:12:12;;;;;;;19.85;3.42;;;10.00;88.00;;;;;;4930788;29;20126;-59
2021/10/16 06:14:38;;;;;;;12.73;3.03;;;10.10;88.00;;;;;;4938686;29;20039;-56
2021/10/16 06:17:05;;;;;;;7.90;2.20;;;10.10;88.10;;;;;;4929086;29;20066;-58
2021/10/16 06:19:32;;;;;;;16.90;3.08;;;10.10;88.10;;;;;;4935510;29;20111;-58
2021/10/16 06:21:59;;;;;;;11.48;2.33;;;10.20;88.30;;;;;;4941283;28;20107;-55
2021/10/16 06:24:26;;;;;;;13.00;3.08;;;10.10;88.30;;;;;;4935724;29;20051;-58
2021/10/16 06:26:53;;;;;;;7.65;1.88;;;10.20;88.30;;;;;;4938264;29;20514;-58
2021/10/16 06:29:20;;;;;;;10.38;2.53;;;10.20;88.20;;;;;;4932914;29;20052;-59
2021/10/16 06:31:46;;;;;;;15.23;2.58;;;10.20;88.20;;;;;;4934601;29;20052;-57
2021/10/16 06:34:13;;;;;;;17.50;3.05;;;10.30;88.30;;;;;;4937189;29;20103;-58
2021/10/16 06:36:40;;;;;;;10.32;2.67;;;10.30;88.40;;;;;;4940054;29;20086;-57
2021/10/16 06:39:07;;;;;;;12.30;2.92;;;10.30;88.60;;;;;;4953221;28;20444;-59
2021/10/16 06:41:34;;;;;;;11.38;2.17;;;10.30;88.60;;;;;;4934911;29;20051;-59
2021/10/16 06:44:01;;;;;;;11.38;2.53;;;10.40;88.60;;;;;;4939128;29;20079;-55
2021/10/16 06:46:28;;;;;;;5.93;2.08;;;10.40;88.60;;;;;;4938527;29;20043;-55
2021/10/16 06:48:55;;;;;;;14.63;2.50;;;10.60;88.60;;;;;;4949198;28;20078;-55
2021/10/16 06:51:22;;;;;;;10.57;2.53;;;10.50;88.40;;;;;;4936327;29;20467;-56
2021/10/16 06:53:49;;;;;;;15.13;2.90;;;10.60;88.40;;;;;;4938740;28;20539;-56
2021/10/16 06:56:16;;;;;;;10.88;2.58;;;10.70;88.50;;;;;;4934567;29;20116;-55
2021/10/16 06:58:42;;;;;;;16.83;2.97;;;10.60;88.60;;;;;;4938010;29;20130;-55
2021/10/16 07:01:09;;;;;;;13.23;2.53;;;10.60;88.70;;;;;;4935513;29;20048;-55
2021/10/16 07:03:36;;;;;;;13.95;4.30;;;10.70;88.80;;;;;;4937468;29;20055;-55
2021/10/16 07:06:03;;;;;;;11.95;2.85;;;10.70;88.70;;;;;;4935369;29;20087;-56
2021/10/16 07:08:30;;;;;;;12.88;2.70;;;10.70;88.70;;;;;;4932882;29;20075;-56
2021/10/16 07:10:57;;;;;;;11.90;2.72;;;10.80;88.80;;;;;;4934683;29;20055;-56
2021/10/16 07:13:24;;;;;;;11.25;2.70;;;10.80;88.80;;;;;;4934528;29;20078;-55
2021/10/16 07:15:51;;;;;;;9.52;2.65;;;10.80;88.90;;;;;;4934502;29;20059;-57
2021/10/16 07:18:18;;;;;;;20.08;3.10;;;10.90;88.80;;;;;;4931451;29;20059;-55
2021/10/16 07:20:45;;;;;;;16.20;2.88;;;11.00;88.70;;;;;;4929897;29;20055;-58
2021/10/16 07:23:32;;;;;;;8.70;2.50;;;11.10;88.70;;;;;;4934748;29;20051;-54
2021/10/16 07:25:59;;;;;;;10.63;2.35;;;11.10;88.70;;;;;;4937074;29;20103;-54
2021/10/16 07:28:26;;;;;;;6.63;1.98;;;11.20;88.70;;;;;;4926731;29;20135;-52
2021/10/16 07:30:52;;;;;;;14.88;3.42;;;11.20;88.60;;;;;;4940120;29;20106;-54
2021/10/16 07:33:19;;;;;;;12.88;2.10;;;11.30;88.70;;;;;;4932023;29;20059;-55
2021/10/16 07:35:46;;;;;;;13.05;4.28;;;11.20;88.60;;;;;;4940731;29;20485;-53
2021/10/16 07:38:13;;;;;;;8.63;1.90;;;11.30;88.60;;;;;;4936478;29;20104;-53
2021/10/16 07:40:41;;;;;;;12.18;2.33;;;11.30;88.50;;;;;;4936802;29;20122;-60
2021/10/16 07:43:08;;;;;;;11.50;2.55;;;11.30;88.40;;;;;;4941539;29;20134;-53
2021/10/16 07:45:35;;;;;;;11.52;2.40;;;11.40;88.40;;;;;;4935119;29;21453;-54
2021/10/16 07:48:02;;;;;;;13.80;3.72;;;11.40;88.30;;;;;;4932309;29;20455;-58
2021/10/16 07:50:29;;;;;;;8.40;2.53;;;11.50;88.50;;;;;;4938007;29;20051;-55
2021/10/16 07:52:56;;;;;;;24.73;3.15;;;11.50;88.50;;;;;;4918394;29;20064;-55
2021/10/16 07:55:23;;;;;;;9.15;2.15;;;11.60;88.50;;;;;;4933229;29;20515;-53
2021/10/16 07:57:49;;;;;;;12.32;2.95;;;11.60;88.50;;;;;;4586064;28;9999765;-55
2021/10/16 08:00:16;;;;;;;14.43;2.88;;;11.60;88.50;;;;;;4933770;29;20072;-54
2021/10/16 08:02:43;;;;;;;19.60;2.92;;;11.70;88.50;;;;;;4944746;28;20142;-54
2021/10/16 08:05:14;;;;;;;16.05;3.47;;;11.70;88.50;;;;;;4933393;29;20039;-55
2021/10/16 08:07:43;;;;;;;14.95;2.92;;;11.70;88.50;;;;;;4925223;29;20056;-55
2021/10/16 08:10:10;;;;;;;13.38;3.05;;;11.80;89.50;;;;;;4928187;29;20078;-54
2021/10/16 08:12:38;;;;;;;22.85;3.63;;;11.80;88.80;;;;;;4928512;29;20056;-58
2021/10/16 08:15:05;;;;;;;13.30;3.55;;;11.80;88.70;;;;;;4927830;29;20075;-56
2021/10/16 08:17:32;;;;;;;17.52;4.70;;;11.90;88.80;;;;;;4931479;29;20048;-56
2021/10/16 08:19:59;;;;;;;15.65;3.97;;;11.90;88.80;;;;;;4931103;29;20086;-53
2021/10/16 08:22:28;;;;;;;11.35;3.08;;;12.00;89.50;;;;;;4933691;29;20501;-55
2021/10/16 08:24:55;;;;;;;15.88;4.78;;;12.00;89.10;;;;;;4933260;29;20103;-54
2021/10/16 08:27:22;;;;;;;13.32;3.30;;;12.10;89.10;;;;;;4938597;29;20087;-55
2021/10/16 08:29:49;;;;;;;17.63;5.70;;;12.10;89.20;;;;;;4932187;29;20103;-54
2021/10/16 08:32:15;;;;;;;18.48;2.72;;;12.10;89.30;;;;;;4935554;29;20094;-54
2021/10/16 08:34:42;;;;;;;12.27;2.55;;;12.20;89.10;;;;;;4931316;29;20362;-55
2021/10/16 08:37:09;;;;;;;13.23;3.42;;;12.30;88.90;;;;;;4932267;29;20492;-55
2021/10/16 08:39:36;;;;;;;13.60;3.42;;;12.30;89.00;;;;;;4939985;29;20048;-51
2021/10/16 08:42:04;;;;;;;10.85;2.72;;;12.40;88.90;;;;;;4934790;29;20110;-54
2021/10/16 08:44:31;;;;;;;10.10;2.90;;;12.40;88.50;;;;;;4938053;29;20053;-56
2021/10/16 08:46:58;;;;;;;11.30;3.30;;;12.50;88.40;;;;;;4952011;28;20055;-55
2021/10/16 08:49:24;;;;;;;8.85;3.45;;;12.50;88.40;;;;;;4928714;29;20048;-54
2021/10/16 08:51:51;;;;;;;8.18;2.63;;;12.60;89.00;;;;;;4930887;29;20081;-55
2021/10/16 08:54:18;;;;;;;12.38;4.03;;;12.60;88.50;;;;;;4924761;29;20048;-55
2021/10/16 08:56:48;;;;;;;12.73;3.55;;;12.70;88.10;;;;;;4934610;29;20051;-54
2021/10/16 08:59:15;;;;;;;9.40;3.53;;;12.70;88.10;;;;;;4587715;29;10000059;-52
2021/10/16 09:02:02;;;;;;;15.55;3.00;;;12.70;88.20;;;;;;4938331;29;20067;-55
2021/10/16 09:04:29;;;;;;;12.52;4.38;;;12.70;89.20;;;;;;4927289;29;20048;-54
2021/10/16 09:06:56;;;;;;;13.10;3.72;;;12.70;88.40;;;;;;4935637;29;20079;-55
2021/10/16 09:09:27;;;;;;;9.52;2.90;;;12.80;88.40;;;;;;4936685;29;20114;-55
2021/10/16 09:11:54;;;;;;;7.47;2.10;;;12.80;88.40;;;;;;4936590;29;20131;-55
2021/10/16 09:14:26;;;;;;;7.10;2.40;;;12.80;88.10;;;;;;4935672;29;20055;-55
2021/10/16 09:16:59;;;;;;;12.18;2.53;;;12.80;88.10;;;;;;4935775;29;20079;-56
2021/10/16 09:19:33;;;;;;;10.10;2.10;;;12.90;88.00;;;;;;4943861;29;20623;-55
2021/10/16 09:22:06;;;;;;;11.32;2.20;;;12.90;88.00;;;;;;4934618;29;20340;-54
2021/10/16 09:24:40;;;;;;;9.60;1.90;;;12.90;87.90;;;;;;4938273;29;20043;-53
2021/10/16 09:27:12;;;;;;;10.40;2.30;;;12.90;87.70;;;;;;4931155;29;20159;-55
2021/10/16 09:29:40;;;;;;;15.75;3.22;;;12.90;88.10;;;;;;4931434;29;20048;-52
2021/10/16 09:32:12;;;;;;;10.02;1.77;;;12.90;88.50;;;;;;4934710;29;20158;-54
2021/10/16 09:34:43;;;;;;;6.15;1.98;;;13.00;88.70;;;;;;4933390;29;20099;-55
2021/10/16 09:37:11;;;;;;;15.02;2.90;;;13.00;88.90;;;;;;4935261;29;20074;-56
2021/10/16 09:39:57;;;;;;;9.13;2.97;;;13.00;89.20;;;;;;4925623;29;20079;-56
2021/10/16 09:42:30;;;;;;;13.15;2.92;;;13.00;89.90;;;;;;4936801;29;20051;-54
2021/10/16 09:45:05;;;;;;;12.52;2.97;;;13.00;90.20;;;;;;4934739;29;20121;-56
2021/10/16 09:47:32;;;;;;;9.23;2.53;;;12.90;89.60;;;;;;4932682;29;20126;-55
2021/10/16 09:50:07;;;;;;;13.70;2.70;;;12.90;89.90;;;;;;4932120;29;20791;-52
2021/10/16 09:52:40;;;;;;;17.83;3.35;;;12.90;90.20;;;;;;4932599;29;20071;-55
2021/10/16 09:55:12;;;;;;;18.97;3.37;;;12.80;90.40;;;;;;4932589;29;20575;-55
2021/10/16 09:57:42;;;;;;;13.48;3.25;;;12.80;90.20;;;;;;4930758;29;20782;-54
2021/10/16 10:00:10;;;;;;;12.90;2.53;;;12.90;90.40;;;;;;4931715;29;20079;-55
2021/10/16 10:02:38;;;;;;;15.10;2.42;;;12.80;90.40;;;;;;4930711;29;20089;-55
2021/10/16 10:05:06;;;;;;;13.07;3.15;;;12.80;90.30;;;;;;4935323;29;20734;-55
2021/10/16 10:07:34;;;;;;;10.00;2.58;;;12.80;90.50;;;;;;4931199;29;20554;-55
2021/10/16 10:10:02;;;;;;;19.23;3.92;;;12.80;90.50;;;;;;4934511;29;20261;-52
2021/10/16 10:12:29;;;;;;;19.27;5.45;;;12.80;90.60;;;;;;4933257;29;20602;-55
2021/10/16 10:14:56;;;;;;;17.48;4.18;;;12.80;90.70;;;;;;4938071;29;20052;-55
2021/10/16 10:17:30;;;;;;;9.98;2.58;;;12.80;90.90;;;;;;4934993;29;20083;-55
2021/10/16 10:20:07;;;;;;;5.65;2.53;;;12.70;91.60;;;;;;4933768;29;20075;-55
2021/10/16 10:22:35;;;;;;;9.38;2.40;;;12.70;91.70;;;;;;4930162;29;20508;-53
2021/10/16 10:25:12;;;;;;;11.65;3.15;;;12.70;91.10;;;;;;4935591;29;20528;-52
2021/10/16 10:27:43;;;;;;;14.45;4.22;;;12.70;91.40;;;;;;4938879;28;20083;-56
2021/10/16 10:30:35;;;;;;;14.02;6.72;;;12.60;91.70;;;;;;4931536;29;20102;-54
2021/10/16 10:33:20;;;;;;;18.50;6.03;;;12.60;92.60;;;;;;4932889;29;20077;-53
2021/10/16 10:35:58;;;;;;;10.52;4.43;;;12.50;92.80;;;;;;4926323;29;20521;-53
2021/10/16 10:38:31;;;;;;;18.40;5.82;;;12.40;92.70;;;;;;4928351;29;20051;-56
2021/10/16 10:40:58;;;;;;;22.00;6.30;;;12.40;92.00;;;;;;4934494;28;20536;-56
2021/10/16 10:43:37;;;;;;;20.10;5.60;;;12.40;92.00;;;;;;4920865;29;20079;-55
2021/10/16 10:46:12;;;;;;;17.05;4.45;;;12.40;92.90;;;;;;4947267;28;20059;-55
2021/10/16 10:48:46;;;;;;;18.25;4.55;;;12.50;92.80;;;;;;4938221;29;20106;-55
2021/10/16 10:51:38;;;;;;;17.20;4.38;;;12.50;92.50;;;;;;4930959;29;20154;-54
2021/10/16 10:54:12;;;;;;;13.88;4.38;;;12.50;93.40;;;;;;4932777;29;20063;-54
2021/10/16 10:56:41;;;;;;;22.80;7.57;;;12.50;92.60;;;;;;4935213;29;20106;-53
2021/10/16 10:59:09;;;;;;;18.80;5.53;;;12.60;92.30;;;;;;4934735;29;20083;-55
2021/10/16 11:01:46;;;;;;;11.43;3.42;;;12.70;92.30;;;;;;4932754;29;20527;-55
2021/10/16 11:04:40;;;;;;;13.43;3.25;;;12.80;92.80;;;;;;4931072;29;20139;-55
2021/10/16 11:07:10;;;;;;;11.55;3.22;;;13.00;93.40;;;;;;4922719;29;20047;-54
2021/10/16 11:09:38;;;;;;;10.20;2.97;;;13.10;92.40;;;;;;4925030;29;20190;-56
2021/10/16 11:12:06;;;;;;;12.15;3.15;;;13.10;92.20;;;;;;4935947;29;20083;-55
2021/10/16 11:14:39;;;;;;;8.38;3.50;;;13.20;92.30;;;;;;4947618;28;20057;-57
2021/10/16 11:17:08;;;;;;;18.35;3.25;;;13.30;92.30;;;;;;4927870;28;20419;-55
2021/10/16 11:19:46;;;;;;;11.55;3.80;;;13.40;92.10;;;;;;4932783;29;20051;-54
2021/10/16 11:22:12;;;;;;;9.02;2.75;;;13.50;92.40;;;;;;4935719;29;20669;-56
2021/10/16 11:24:39;;;;;;;10.20;3.33;;;13.60;92.00;;;;;;4934312;29;20055;-54
2021/10/16 11:27:06;;;;;;;11.90;3.30;;;13.70;91.90;;;;;;4932629;29;20282;-55
2021/10/16 11:29:34;;;;;;;14.63;3.58;;;13.70;92.00;;;;;;4933729;29;20135;-54
2021/10/16 11:32:17;;;;;;;9.65;3.20;;;13.80;92.00;;;;;;4934293;29;20052;-55
2021/10/16 11:35:06;;;;;;;14.93;3.97;;;13.90;92.30;;;;;;4933758;29;20059;-54
2021/10/16 11:37:41;;;;;;;9.60;2.92;;;14.00;92.30;;;;;;4938886;28;20122;-53
2021/10/16 11:40:10;;;;;;;11.95;3.10;;;14.00;91.60;;;;;;4941641;28;20481;-54
2021/10/16 11:42:37;;;;;;;8.10;2.70;;;14.00;91.70;;;;;;4932787;29;20040;-59
2021/10/16 11:45:11;;;;;;;8.10;2.50;;;14.10;91.50;;;;;;4925545;29;20052;-53
2021/10/16 11:47:44;;;;;;;21.83;3.35;;;14.10;91.60;;;;;;4933091;29;20083;-53
2021/10/16 11:50:17;;;;;;;8.40;3.42;;;14.20;91.50;;;;;;4929826;28;20131;-55
2021/10/16 11:52:48;;;;;;;11.70;4.00;;;14.20;91.40;;;;;;4936969;29;20144;-54
2021/10/16 11:55:21;;;;;;;10.38;3.38;;;14.30;91.50;;;;;;4937145;29;20079;-55
2021/10/16 11:57:49;;;;;;;14.60;4.18;;;14.30;91.50;;;;;;4935603;29;20055;-55
2021/10/16 12:00:24;;;;;;;18.48;3.83;;;14.40;91.40;;;;;;4937110;29;20055;-54
2021/10/16 12:02:51;;;;;;;23.17;3.65;;;14.50;91.50;;;;;;4938514;29;20529;-56
2021/10/16 12:05:19;;;;;;;13.50;3.03;;;14.50;91.60;;;;;;4942655;29;20086;-55
2021/10/16 12:07:46;;;;;;;13.73;4.53;;;14.50;91.40;;;;;;4951175;28;20060;-55
2021/10/16 12:10:22;;;;;;;11.70;3.20;;;14.60;91.50;;;;;;4943871;29;20052;-54
2021/10/16 12:13:09;;;;;;;11.02;3.90;;;14.70;91.60;;;;;;4938035;29;20056;-55
2021/10/16 12:15:46;;;;;;;12.95;4.93;;;14.80;91.60;;;;;;4945316;29;20098;-55
2021/10/16 12:18:51;;;;;;;10.48;5.20;;;14.90;91.50;;;;;;4935666;29;20044;-52
2021/10/16 12:21:32;;;;;;;10.55;4.50;;;15.00;91.80;;;;;;4948611;28;20491;-54
2021/10/16 12:24:00;;;;;;;12.15;3.70;;;15.10;91.20;;;;;;4936039;29;20043;-55
2021/10/16 12:26:35;;;;;;;11.50;3.85;;;15.10;91.30;;;;;;4941860;29;20067;-53
2021/10/16 12:29:07;;;;;;;12.00;4.13;;;15.20;91.10;;;;;;4937114;29;20070;-50
2021/10/16 12:31:48;;;;;;;12.70;5.03;;;15.20;91.10;;;;;;4940271;29;20052;-54
2021/10/16 12:34:16;;;;;;;8.52;3.15;;;15.30;91.20;;;;;;4942859;29;20067;-56
2021/10/16 12:36:53;;;;;;;12.00;4.28;;;15.30;91.00;;;;;;4938275;29;20083;-53
2021/10/16 12:39:43;;;;;;;10.05;4.72;;;15.30;91.10;;;;;;4943386;29;20051;-55
2021/10/16 12:42:23;;;;;;;7.90;4.63;;;15.40;90.40;;;;;;4939804;29;20079;-54
2021/10/16 12:44:54;;;;;;;10.57;4.78;;;15.40;90.70;;;;;;4955339;28;20055;-55
2021/10/16 12:47:28;;;;;;;7.95;4.28;;;15.40;90.90;;;;;;4937334;29;20138;-56
2021/10/16 12:49:56;;;;;;;15.48;4.38;;;15.30;90.60;;;;;;4939800;29;20079;-56
2021/10/16 12:52:48;;;;;;;7.88;4.45;;;15.30;90.80;;;;;;4937597;29;20063;-54
2021/10/16 12:55:15;;;;;;;9.13;4.35;;;15.30;90.70;;;;;;4939035;29;20079;-56